Mustafa Dayi — TCZF2 — position and weather

sailwx.info

Track history (hours):
 
Tides and Currents Weather Stations Pressure Air Temp Water Temp Dewpoint Dewpoint Depression Visibility Wind Speed Wind Dir Waves Ship Positions

Mustafa Dayi

Last reported at 2016-Aug-22 15:19 UTC. Time now 2016-Aug-24 06:50 UTC.
Position N 31°52' E 034°38'.

Length 183 m; draft 10.1 m.

Type: Ship (hazmat cat A). MMSI: 271042433.

Date/timePositionNaut miles runAvg speedWind from/ knotsBaromVisibWave heightAir tempDewpointWater temp
2016-Aug-22 15:19N 31°52' E 034°38'13 6.2
2016-Aug-22 13:12N 32°04' E 034°33'914.8
2016-Aug-22 12:34N 32°13' E 034°36'1414.5
2016-Aug-22 11:34N 32°27' E 034°41'1514.7
2016-Aug-22 10:34N 32°41' E 034°47'1313.1
2016-Aug-22 09:33N 32°53' E 034°53'7 7.1
2016-Aug-22 08:33N 32°49' E 035°01'0 0.0
2016-Aug-22 07:32N 32°49' E 035°01'0 0.0
2016-Aug-22 06:32N 32°49' E 035°01'0 0.0
2016-Aug-22 05:31N 32°49' E 035°01'0 0.0
2016-Aug-22 04:31N 32°49' E 035°01'0 0.0
2016-Aug-22 03:33N 32°49' E 035°01'0 0.0
2016-Aug-22 02:33N 32°49' E 035°01'0 0.0
2016-Aug-22 01:33N 32°49' E 035°01'0 0.0
2016-Aug-22 00:32N 32°49' E 035°01'0 0.0
2016-Aug-21 23:29N 32°49' E 035°01'0 0.0
2016-Aug-21 22:31N 32°49' E 035°01'0 0.0
2016-Aug-21 21:31N 32°49' E 035°01'0 0.0
2016-Aug-21 20:33N 32°49' E 035°01'1 0.5
2016-Aug-21 19:34N 32°49' E 035°01'4 4.4
2016-Aug-21 18:34N 32°53' E 034°58'7 7.1
2016-Aug-21 17:33N 32°54' E 034°50'1616.0
2016-Aug-21 16:33N 32°57' E 034°31'1817.6
2016-Aug-21 15:33N 33°02' E 034°11'1514.6
2016-Aug-21 14:33N 33°13' E 034°01'1918.5
2016-Aug-21 13:33N 33°31' E 034°05'1818.1
2016-Aug-21 12:33N 33°49' E 034°10'1817.6
2016-Aug-21 11:33N 34°06' E 034°16'1817.7
2016-Aug-21 10:33N 34°23' E 034°21'1817.8
2016-Aug-21 09:33N 34°41' E 034°26'1716.7
2016-Aug-21 08:33N 34°57' E 034°30'1716.6
2016-Aug-21 07:33N 35°13' E 034°34'95 6.3
2016-Aug-20 16:31N 36°48' E 034°39'0 0.0
2016-Aug-20 15:28N 36°48' E 034°39'0 0.0
2016-Aug-20 14:09N 36°48' E 034°39'2 0.6
2016-Aug-20 11:07N 36°46' E 034°40'19614.1
2016-Aug-19 21:11N 36°02' E 030°42'2716.5
2016-Aug-19 19:33N 36°03' E 030°09'  
2016-Aug-15 09:11N 40°42' E 028°55'914.9
2016-Aug-15 08:33N 40°43' E 029°07'1414.0
2016-Aug-15 07:33N 40°45' E 029°25'1312.1
2016-Aug-15 06:30N 40°46' E 029°42'4 0.4
2016-Aug-14 21:06N 40°45' E 029°37'711.8
2016-Aug-14 20:33N 40°44' E 029°28'1211.9
2016-Aug-14 19:33N 40°44' E 029°13'1413.7
2016-Aug-14 18:33N 40°47' E 028°56'14 0.6
2016-Aug-13 17:08N 40°56' E 028°40'812.9
2016-Aug-13 16:31N 40°48' E 028°40'2711.0
2016-Aug-13 14:03N 40°25' E 028°59'4 7.9
2016-Aug-13 13:33N 40°25' E 029°05'0 0.2
2016-Aug-13 12:33N 40°25' E 029°05'0 0.0
2016-Aug-13 11:20N 40°25' E 029°05'0 0.0
2016-Aug-13 10:32N 40°25' E 029°05'0 0.0
2016-Aug-13 09:26N 40°25' E 029°05'0 0.0
2016-Aug-13 08:07N 40°25' E 029°05'0 0.0
2016-Aug-13 07:25N 40°25' E 029°05'0 0.0
2016-Aug-13 06:24N 40°25' E 029°05'0 0.0
2016-Aug-13 05:30N 40°25' E 029°05'0 0.0
2016-Aug-13 04:30N 40°25' E 029°05'0 0.0
2016-Aug-13 03:29N 40°25' E 029°05'0 0.0
2016-Aug-13 02:29N 40°25' E 029°05'0 0.0
2016-Aug-13 00:16N 40°25' E 029°05'0 0.0
2016-Aug-12 23:33N 40°25' E 029°05'0 0.0
2016-Aug-12 22:21N 40°25' E 029°05'0 0.0
2016-Aug-12 20:26N 40°25' E 029°05'0 0.0
2016-Aug-12 19:32N 40°25' E 029°05'1 1.1
2016-Aug-12 18:33N 40°26' E 029°04'  
Track history (hours):
 
Tides and Currents Weather Stations Pressure Air Temp Water Temp Dewpoint Dewpoint Depression Visibility Wind Speed Wind Dir Waves Ship Positions

Mustafa Dayi

Last reported at 2016-Aug-22 15:19 UTC. Time now 2016-Aug-24 06:50 UTC.
Position N 31°52' E 034°38'.

Length 183 m; draft 10.1 m.

Type: Ship (hazmat cat A). MMSI: 271042433.

Date/timePositionNaut miles runAvg speedWind from/ knotsBaromVisibWave heightAir tempDewpointWater temp
2016-Aug-22 15:19N 31°52' E 034°38'13 6.2
2016-Aug-22 13:12N 32°04' E 034°33'914.8
2016-Aug-22 12:34N 32°13' E 034°36'1414.5
2016-Aug-22 11:34N 32°27' E 034°41'1514.7
2016-Aug-22 10:34N 32°41' E 034°47'1313.1
2016-Aug-22 09:33N 32°53' E 034°53'7 7.1
2016-Aug-22 08:33N 32°49' E 035°01'0 0.0
2016-Aug-22 07:32N 32°49' E 035°01'0 0.0
2016-Aug-22 06:32N 32°49' E 035°01'0 0.0
2016-Aug-22 05:31N 32°49' E 035°01'0 0.0
2016-Aug-22 04:31N 32°49' E 035°01'0 0.0
2016-Aug-22 03:33N 32°49' E 035°01'0 0.0
2016-Aug-22 02:33N 32°49' E 035°01'0 0.0
2016-Aug-22 01:33N 32°49' E 035°01'0 0.0
2016-Aug-22 00:32N 32°49' E 035°01'0 0.0
2016-Aug-21 23:29N 32°49' E 035°01'0 0.0
2016-Aug-21 22:31N 32°49' E 035°01'0 0.0
2016-Aug-21 21:31N 32°49' E 035°01'0 0.0
2016-Aug-21 20:33N 32°49' E 035°01'1 0.5
2016-Aug-21 19:34N 32°49' E 035°01'4 4.4
2016-Aug-21 18:34N 32°53' E 034°58'7 7.1
2016-Aug-21 17:33N 32°54' E 034°50'1616.0
2016-Aug-21 16:33N 32°57' E 034°31'1817.6
2016-Aug-21 15:33N 33°02' E 034°11'1514.6
2016-Aug-21 14:33N 33°13' E 034°01'1918.5
2016-Aug-21 13:33N 33°31' E 034°05'1818.1
2016-Aug-21 12:33N 33°49' E 034°10'1817.6
2016-Aug-21 11:33N 34°06' E 034°16'1817.7
2016-Aug-21 10:33N 34°23' E 034°21'1817.8
2016-Aug-21 09:33N 34°41' E 034°26'1716.7
2016-Aug-21 08:33N 34°57' E 034°30'1716.6
2016-Aug-21 07:33N 35°13' E 034°34'95 6.3
2016-Aug-20 16:31N 36°48' E 034°39'0 0.0
2016-Aug-20 15:28N 36°48' E 034°39'0 0.0
2016-Aug-20 14:09N 36°48' E 034°39'2 0.6
2016-Aug-20 11:07N 36°46' E 034°40'19614.1
2016-Aug-19 21:11N 36°02' E 030°42'2716.5
2016-Aug-19 19:33N 36°03' E 030°09'  
2016-Aug-15 09:11N 40°42' E 028°55'914.9
2016-Aug-15 08:33N 40°43' E 029°07'1414.0
2016-Aug-15 07:33N 40°45' E 029°25'1312.1
2016-Aug-15 06:30N 40°46' E 029°42'4 0.4
2016-Aug-14 21:06N 40°45' E 029°37'711.8
2016-Aug-14 20:33N 40°44' E 029°28'1211.9
2016-Aug-14 19:33N 40°44' E 029°13'1413.7
2016-Aug-14 18:33N 40°47' E 028°56'14 0.6
2016-Aug-13 17:08N 40°56' E 028°40'812.9
2016-Aug-13 16:31N 40°48' E 028°40'2711.0
2016-Aug-13 14:03N 40°25' E 028°59'4 7.9
2016-Aug-13 13:33N 40°25' E 029°05'0 0.2
2016-Aug-13 12:33N 40°25' E 029°05'0 0.0
2016-Aug-13 11:20N 40°25' E 029°05'0 0.0
2016-Aug-13 10:32N 40°25' E 029°05'0 0.0
2016-Aug-13 09:26N 40°25' E 029°05'0 0.0
2016-Aug-13 08:07N 40°25' E 029°05'0 0.0
2016-Aug-13 07:25N 40°25' E 029°05'0 0.0
2016-Aug-13 06:24N 40°25' E 029°05'0 0.0
2016-Aug-13 05:30N 40°25' E 029°05'0 0.0
2016-Aug-13 04:30N 40°25' E 029°05'0 0.0
2016-Aug-13 03:29N 40°25' E 029°05'0 0.0
2016-Aug-13 02:29N 40°25' E 029°05'0 0.0
2016-Aug-13 00:16N 40°25' E 029°05'0 0.0
2016-Aug-12 23:33N 40°25' E 029°05'0 0.0
2016-Aug-12 22:21N 40°25' E 029°05'0 0.0
2016-Aug-12 20:26N 40°25' E 029°05'0 0.0
2016-Aug-12 19:32N 40°25' E 029°05'1 1.1
2016-Aug-12 18:33N 40°26' E 029°04'  

Dump ship's entire track history